sensor_id;sensor_type;location;lat;lon;timestamp;P1;durP1;ratioP1;P2;durP2;ratioP2
61013;SDS011;46899;47.542;19.082;2024-03-25T00:01:10;3.22;;;2.17;;
61013;SDS011;46899;47.542;19.082;2024-03-25T00:04:15;3.53;;;2.00;;
61013;SDS011;46899;47.542;19.082;2024-03-25T00:07:17;3.53;;;2.20;;
61013;SDS011;46899;47.542;19.082;2024-03-25T00:10:19;2.90;;;2.03;;
61013;SDS011;46899;47.542;19.082;2024-03-25T00:13:22;3.67;;;1.92;;
61013;SDS011;46899;47.542;19.082;2024-03-25T00:16:24;3.58;;;1.77;;
61013;SDS011;46899;47.542;19.082;2024-03-25T00:19:26;2.40;;;1.80;;
61013;SDS011;46899;47.542;19.082;2024-03-25T00:22:29;3.33;;;1.87;;
61013;SDS011;46899;47.542;19.082;2024-03-25T00:25:31;3.50;;;2.30;;
61013;SDS011;46899;47.542;19.082;2024-03-25T00:28:33;3.10;;;1.90;;
61013;SDS011;46899;47.542;19.082;2024-03-25T00:31:34;3.83;;;1.90;;
61013;SDS011;46899;47.542;19.082;2024-03-25T00:34:37;3.03;;;2.00;;
61013;SDS011;46899;47.542;19.082;2024-03-25T00:37:38;2.78;;;1.73;;
61013;SDS011;46899;47.542;19.082;2024-03-25T00:40:40;3.35;;;2.00;;
61013;SDS011;46899;47.542;19.082;2024-03-25T00:43:42;3.35;;;1.90;;
61013;SDS011;46899;47.542;19.082;2024-03-25T00:46:45;2.95;;;2.00;;
61013;SDS011;46899;47.542;19.082;2024-03-25T00:49:47;5.50;;;2.20;;
61013;SDS011;46899;47.542;19.082;2024-03-25T00:52:49;3.45;;;2.10;;
61013;SDS011;46899;47.542;19.082;2024-03-25T00:55:51;3.35;;;2.10;;
61013;SDS011;46899;47.542;19.082;2024-03-25T00:58:53;4.20;;;2.17;;
61013;SDS011;46899;47.542;19.082;2024-03-25T01:01:55;4.85;;;2.33;;
61013;SDS011;46899;47.542;19.082;2024-03-25T01:04:59;3.40;;;2.10;;
61013;SDS011;46899;47.542;19.082;2024-03-25T01:08:01;5.05;;;2.30;;
61013;SDS011;46899;47.542;19.082;2024-03-25T01:11:03;3.70;;;2.22;;
61013;SDS011;46899;47.542;19.082;2024-03-25T01:14:06;3.65;;;2.08;;
61013;SDS011;46899;47.542;19.082;2024-03-25T01:17:08;4.28;;;2.40;;
61013;SDS011;46899;47.542;19.082;2024-03-25T01:20:09;4.85;;;2.08;;
61013;SDS011;46899;47.542;19.082;2024-03-25T01:23:12;4.40;;;2.10;;
61013;SDS011;46899;47.542;19.082;2024-03-25T01:26:14;3.60;;;2.10;;
61013;SDS011;46899;47.542;19.082;2024-03-25T01:29:16;4.18;;;2.20;;
61013;SDS011;46899;47.542;19.082;2024-03-25T01:32:18;3.15;;;2.12;;
61013;SDS011;46899;47.542;19.082;2024-03-25T01:35:20;2.60;;;1.83;;
61013;SDS011;46899;47.542;19.082;2024-03-25T01:38:22;3.28;;;2.12;;
61013;SDS011;46899;47.542;19.082;2024-03-25T01:41:24;3.05;;;2.12;;
61013;SDS011;46899;47.542;19.082;2024-03-25T01:44:26;2.60;;;1.77;;
61013;SDS011;46899;47.542;19.082;2024-03-25T01:47:29;3.42;;;2.17;;
61013;SDS011;46899;47.542;19.082;2024-03-25T01:50:36;3.08;;;2.35;;
61013;SDS011;46899;47.542;19.082;2024-03-25T01:53:40;3.08;;;1.87;;
61013;SDS011;46899;47.542;19.082;2024-03-25T01:56:43;3.33;;;2.20;;
61013;SDS011;46899;47.542;19.082;2024-03-25T01:59:48;3.90;;;2.65;;
61013;SDS011;46899;47.542;19.082;2024-03-25T02:02:50;4.65;;;2.15;;
61013;SDS011;46899;47.542;19.082;2024-03-25T02:05:59;4.18;;;2.50;;
61013;SDS011;46899;47.542;19.082;2024-03-25T02:09:05;3.58;;;2.10;;
61013;SDS011;46899;47.542;19.082;2024-03-25T02:12:08;3.55;;;2.35;;
61013;SDS011;46899;47.542;19.082;2024-03-25T02:15:11;4.03;;;2.30;;
61013;SDS011;46899;47.542;19.082;2024-03-25T02:18:17;4.40;;;2.15;;
61013;SDS011;46899;47.542;19.082;2024-03-25T02:21:19;3.10;;;2.12;;
61013;SDS011;46899;47.542;19.082;2024-03-25T02:24:21;4.00;;;2.20;;
61013;SDS011;46899;47.542;19.082;2024-03-25T02:27:26;4.10;;;2.47;;
61013;SDS011;46899;47.542;19.082;2024-03-25T02:30:32;4.40;;;2.25;;
61013;SDS011;46899;47.542;19.082;2024-03-25T02:33:34;3.10;;;2.22;;
61013;SDS011;46899;47.542;19.082;2024-03-25T02:36:36;4.07;;;2.28;;
61013;SDS011;46899;47.542;19.082;2024-03-25T02:39:38;2.67;;;1.87;;
61013;SDS011;46899;47.542;19.082;2024-03-25T02:42:41;2.95;;;1.95;;
61013;SDS011;46899;47.542;19.082;2024-03-25T02:45:42;3.83;;;2.30;;
61013;SDS011;46899;47.542;19.082;2024-03-25T02:48:45;2.95;;;2.00;;
61013;SDS011;46899;47.542;19.082;2024-03-25T02:51:47;2.65;;;1.90;;
61013;SDS011;46899;47.542;19.082;2024-03-25T02:54:50;4.95;;;2.20;;
61013;SDS011;46899;47.542;19.082;2024-03-25T02:57:51;3.83;;;1.85;;
61013;SDS011;46899;47.542;19.082;2024-03-25T03:00:53;3.05;;;2.35;;
61013;SDS011;46899;47.542;19.082;2024-03-25T03:03:55;5.00;;;2.28;;
61013;SDS011;46899;47.542;19.082;2024-03-25T03:06:58;3.78;;;2.00;;
61013;SDS011;46899;47.542;19.082;2024-03-25T03:10:00;2.28;;;1.80;;
61013;SDS011;46899;47.542;19.082;2024-03-25T03:13:03;4.32;;;2.00;;
61013;SDS011;46899;47.542;19.082;2024-03-25T03:16:05;2.83;;;1.67;;
61013;SDS011;46899;47.542;19.082;2024-03-25T03:19:07;2.97;;;1.90;;
61013;SDS011;46899;47.542;19.082;2024-03-25T03:22:09;3.05;;;1.90;;
61013;SDS011;46899;47.542;19.082;2024-03-25T03:25:11;2.97;;;1.80;;
61013;SDS011;46899;47.542;19.082;2024-03-25T03:28:12;2.20;;;1.87;;
61013;SDS011;46899;47.542;19.082;2024-03-25T03:31:14;2.47;;;1.83;;
61013;SDS011;46899;47.542;19.082;2024-03-25T03:34:16;3.22;;;1.80;;
61013;SDS011;46899;47.542;19.082;2024-03-25T03:37:18;2.80;;;1.80;;
61013;SDS011;46899;47.542;19.082;2024-03-25T03:40:19;3.65;;;2.05;;
61013;SDS011;46899;47.542;19.082;2024-03-25T03:43:21;5.57;;;1.83;;
61013;SDS011;46899;47.542;19.082;2024-03-25T03:46:23;1.85;;;1.70;;
61013;SDS011;46899;47.542;19.082;2024-03-25T03:49:25;2.10;;;1.65;;
61013;SDS011;46899;47.542;19.082;2024-03-25T03:52:26;2.15;;;1.67;;
61013;SDS011;46899;47.542;19.082;2024-03-25T03:55:28;3.35;;;1.80;;
61013;SDS011;46899;47.542;19.082;2024-03-25T03:58:30;1.95;;;1.55;;
61013;SDS011;46899;47.542;19.082;2024-03-25T04:01:33;3.25;;;1.80;;
61013;SDS011;46899;47.542;19.082;2024-03-25T04:04:35;6.07;;;1.85;;
61013;SDS011;46899;47.542;19.082;2024-03-25T04:07:37;1.90;;;1.50;;
61013;SDS011;46899;47.542;19.082;2024-03-25T04:10:40;3.37;;;1.65;;
61013;SDS011;46899;47.542;19.082;2024-03-25T04:13:42;2.10;;;1.65;;
61013;SDS011;46899;47.542;19.082;2024-03-25T04:16:44;4.35;;;1.40;;
61013;SDS011;46899;47.542;19.082;2024-03-25T04:19:46;3.08;;;1.58;;
61013;SDS011;46899;47.542;19.082;2024-03-25T04:22:49;2.75;;;1.52;;
61013;SDS011;46899;47.542;19.082;2024-03-25T04:25:51;2.25;;;1.48;;
61013;SDS011;46899;47.542;19.082;2024-03-25T04:28:53;3.95;;;1.48;;
61013;SDS011;46899;47.542;19.082;2024-03-25T04:31:55;5.65;;;1.55;;
61013;SDS011;46899;47.542;19.082;2024-03-25T04:34:57;3.97;;;1.37;;
61013;SDS011;46899;47.542;19.082;2024-03-25T04:37:59;1.45;;;1.20;;
61013;SDS011;46899;47.542;19.082;2024-03-25T04:41:01;2.50;;;1.60;;
61013;SDS011;46899;47.542;19.082;2024-03-25T04:44:03;1.83;;;1.10;;
61013;SDS011;46899;47.542;19.082;2024-03-25T04:47:05;1.27;;;1.17;;
61013;SDS011;46899;47.542;19.082;2024-03-25T04:50:07;2.62;;;1.33;;
61013;SDS011;46899;47.542;19.082;2024-03-25T04:53:10;1.02;;;0.88;;
61013;SDS011;46899;47.542;19.082;2024-03-25T04:56:12;1.73;;;1.20;;
61013;SDS011;46899;47.542;19.082;2024-03-25T04:59:14;1.67;;;1.20;;
61013;SDS011;46899;47.542;19.082;2024-03-25T05:02:16;1.50;;;1.20;;
61013;SDS011;46899;47.542;19.082;2024-03-25T05:05:18;1.70;;;1.27;;
61013;SDS011;46899;47.542;19.082;2024-03-25T05:08:20;1.98;;;1.35;;
61013;SDS011;46899;47.542;19.082;2024-03-25T05:11:22;2.92;;;1.17;;
61013;SDS011;46899;47.542;19.082;2024-03-25T05:14:24;2.65;;;1.10;;
61013;SDS011;46899;47.542;19.082;2024-03-25T05:17:26;1.95;;;1.33;;
61013;SDS011;46899;47.542;19.082;2024-03-25T05:20:28;2.55;;;1.37;;
61013;SDS011;46899;47.542;19.082;2024-03-25T05:23:30;2.40;;;1.37;;
61013;SDS011;46899;47.542;19.082;2024-03-25T05:26:32;2.42;;;1.48;;
61013;SDS011;46899;47.542;19.082;2024-03-25T05:29:34;3.42;;;1.85;;
61013;SDS011;46899;47.542;19.082;2024-03-25T05:32:36;2.53;;;1.42;;
61013;SDS011;46899;47.542;19.082;2024-03-25T05:35:38;2.90;;;1.50;;
61013;SDS011;46899;47.542;19.082;2024-03-25T05:38:42;1.70;;;1.25;;
61013;SDS011;46899;47.542;19.082;2024-03-25T05:41:44;3.78;;;1.60;;
61013;SDS011;46899;47.542;19.082;2024-03-25T05:44:46;1.87;;;1.33;;
61013;SDS011;46899;47.542;19.082;2024-03-25T05:47:49;1.75;;;1.25;;
61013;SDS011;46899;47.542;19.082;2024-03-25T05:51:01;3.00;;;1.50;;
61013;SDS011;46899;47.542;19.082;2024-03-25T05:54:07;4.00;;;2.67;;
61013;SDS011;46899;47.542;19.082;2024-03-25T05:57:09;3.35;;;1.98;;
61013;SDS011;46899;47.542;19.082;2024-03-25T06:00:13;3.30;;;1.70;;
61013;SDS011;46899;47.542;19.082;2024-03-25T06:03:16;2.50;;;1.50;;
61013;SDS011;46899;47.542;19.082;2024-03-25T06:06:19;2.35;;;1.75;;
61013;SDS011;46899;47.542;19.082;2024-03-25T06:09:21;2.60;;;1.67;;
61013;SDS011;46899;47.542;19.082;2024-03-25T06:12:23;2.58;;;1.77;;
61013;SDS011;46899;47.542;19.082;2024-03-25T06:15:25;3.10;;;1.55;;
61013;SDS011;46899;47.542;19.082;2024-03-25T06:18:26;2.90;;;1.70;;
61013;SDS011;46899;47.542;19.082;2024-03-25T06:21:29;2.17;;;1.80;;
61013;SDS011;46899;47.542;19.082;2024-03-25T06:24:31;2.75;;;1.60;;
61013;SDS011;46899;47.542;19.082;2024-03-25T06:27:33;2.40;;;1.35;;
61013;SDS011;46899;47.542;19.082;2024-03-25T06:30:35;3.33;;;1.27;;
61013;SDS011;46899;47.542;19.082;2024-03-25T06:33:55;2.70;;;1.50;;
61013;SDS011;46899;47.542;19.082;2024-03-25T06:37:15;4.40;;;2.03;;
61013;SDS011;46899;47.542;19.082;2024-03-25T06:40:17;3.42;;;1.50;;
61013;SDS011;46899;47.542;19.082;2024-03-25T06:43:19;2.25;;;1.30;;
61013;SDS011;46899;47.542;19.082;2024-03-25T06:46:21;3.22;;;1.30;;
61013;SDS011;46899;47.542;19.082;2024-03-25T06:49:23;2.53;;;1.60;;
61013;SDS011;46899;47.542;19.082;2024-03-25T06:52:25;3.60;;;1.23;;
61013;SDS011;46899;47.542;19.082;2024-03-25T06:55:27;2.12;;;1.33;;
61013;SDS011;46899;47.542;19.082;2024-03-25T06:58:30;2.55;;;1.30;;
61013;SDS011;46899;47.542;19.082;2024-03-25T07:01:32;1.92;;;1.15;;
61013;SDS011;46899;47.542;19.082;2024-03-25T07:04:34;1.70;;;1.52;;
61013;SDS011;46899;47.542;19.082;2024-03-25T07:07:37;2.25;;;1.50;;
61013;SDS011;46899;47.542;19.082;2024-03-25T07:10:41;1.52;;;1.33;;
61013;SDS011;46899;47.542;19.082;2024-03-25T07:13:43;2.12;;;1.40;;
61013;SDS011;46899;47.542;19.082;2024-03-25T07:16:45;1.87;;;1.37;;
61013;SDS011;46899;47.542;19.082;2024-03-25T07:19:47;1.52;;;1.12;;
61013;SDS011;46899;47.542;19.082;2024-03-25T07:22:50;1.65;;;1.20;;
61013;SDS011;46899;47.542;19.082;2024-03-25T07:25:51;1.40;;;1.30;;
61013;SDS011;46899;47.542;19.082;2024-03-25T07:28:53;1.92;;;1.25;;
61013;SDS011;46899;47.542;19.082;2024-03-25T07:31:55;2.97;;;1.40;;
61013;SDS011;46899;47.542;19.082;2024-03-25T07:34:57;2.53;;;1.60;;
61013;SDS011;46899;47.542;19.082;2024-03-25T07:37:59;1.70;;;1.27;;
61013;SDS011;46899;47.542;19.082;2024-03-25T07:41:04;2.20;;;1.50;;
61013;SDS011;46899;47.542;19.082;2024-03-25T07:44:06;2.28;;;1.70;;
61013;SDS011;46899;47.542;19.082;2024-03-25T07:47:08;3.08;;;1.30;;
61013;SDS011;46899;47.542;19.082;2024-03-25T07:50:10;2.08;;;1.62;;
61013;SDS011;46899;47.542;19.082;2024-03-25T07:53:12;3.10;;;1.60;;
61013;SDS011;46899;47.542;19.082;2024-03-25T07:56:16;2.33;;;1.50;;
61013;SDS011;46899;47.542;19.082;2024-03-25T07:59:19;2.35;;;1.45;;
61013;SDS011;46899;47.542;19.082;2024-03-25T08:02:21;2.12;;;1.60;;
61013;SDS011;46899;47.542;19.082;2024-03-25T08:05:23;2.00;;;1.65;;
61013;SDS011;46899;47.542;19.082;2024-03-25T08:08:24;2.53;;;1.55;;
61013;SDS011;46899;47.542;19.082;2024-03-25T08:11:27;3.30;;;1.60;;
61013;SDS011;46899;47.542;19.082;2024-03-25T08:14:29;4.32;;;1.45;;
61013;SDS011;46899;47.542;19.082;2024-03-25T08:17:31;1.77;;;1.40;;
61013;SDS011;46899;47.542;19.082;2024-03-25T08:20:33;4.12;;;1.48;;
61013;SDS011;46899;47.542;19.082;2024-03-25T08:23:35;1.70;;;1.60;;
61013;SDS011;46899;47.542;19.082;2024-03-25T08:26:37;2.15;;;1.70;;
61013;SDS011;46899;47.542;19.082;2024-03-25T08:29:39;2.95;;;1.50;;
61013;SDS011;46899;47.542;19.082;2024-03-25T08:32:41;3.53;;;1.85;;
61013;SDS011;46899;47.542;19.082;2024-03-25T08:35:43;2.47;;;1.60;;
61013;SDS011;46899;47.542;19.082;2024-03-25T08:38:45;2.55;;;1.70;;
61013;SDS011;46899;47.542;19.082;2024-03-25T08:41:47;3.70;;;1.70;;
61013;SDS011;46899;47.542;19.082;2024-03-25T08:44:49;5.75;;;1.70;;
61013;SDS011;46899;47.542;19.082;2024-03-25T08:47:51;2.53;;;1.85;;
61013;SDS011;46899;47.542;19.082;2024-03-25T08:50:53;2.92;;;1.70;;
61013;SDS011;46899;47.542;19.082;2024-03-25T08:53:55;2.28;;;1.48;;
61013;SDS011;46899;47.542;19.082;2024-03-25T08:56:56;2.22;;;1.70;;
61013;SDS011;46899;47.542;19.082;2024-03-25T08:59:59;3.50;;;1.50;;
61013;SDS011;46899;47.542;19.082;2024-03-25T09:03:00;1.83;;;1.50;;
61013;SDS011;46899;47.542;19.082;2024-03-25T09:06:03;2.65;;;1.60;;
61013;SDS011;46899;47.542;19.082;2024-03-25T09:09:05;2.22;;;1.60;;
61013;SDS011;46899;47.542;19.082;2024-03-25T09:12:25;3.35;;;1.58;;
61013;SDS011;46899;47.542;19.082;2024-03-25T09:15:27;3.12;;;1.65;;
61013;SDS011;46899;47.542;19.082;2024-03-25T09:18:29;1.83;;;1.60;;
61013;SDS011;46899;47.542;19.082;2024-03-25T09:21:31;1.92;;;1.37;;
61013;SDS011;46899;47.542;19.082;2024-03-25T09:24:33;1.92;;;1.30;;
61013;SDS011;46899;47.542;19.082;2024-03-25T09:27:34;1.62;;;1.42;;
61013;SDS011;46899;47.542;19.082;2024-03-25T09:30:37;1.48;;;1.37;;
61013;SDS011;46899;47.542;19.082;2024-03-25T09:33:38;3.08;;;1.70;;
61013;SDS011;46899;47.542;19.082;2024-03-25T09:36:41;1.52;;;1.40;;
61013;SDS011;46899;47.542;19.082;2024-03-25T09:39:42;1.95;;;1.80;;
61013;SDS011;46899;47.542;19.082;2024-03-25T09:45:50;3.28;;;1.50;;
61013;SDS011;46899;47.542;19.082;2024-03-25T09:48:54;2.15;;;1.50;;
61013;SDS011;46899;47.542;19.082;2024-03-25T09:51:55;4.22;;;1.30;;
61013;SDS011;46899;47.542;19.082;2024-03-25T09:54:58;3.45;;;1.52;;
61013;SDS011;46899;47.542;19.082;2024-03-25T09:58:00;3.60;;;1.90;;
61013;SDS011;46899;47.542;19.082;2024-03-25T10:01:02;1.62;;;1.30;;
61013;SDS011;46899;47.542;19.082;2024-03-25T10:04:05;4.62;;;1.60;;
61013;SDS011;46899;47.542;19.082;2024-03-25T10:07:06;1.83;;;1.40;;
61013;SDS011;46899;47.542;19.082;2024-03-25T10:10:56;2.42;;;1.48;;
61013;SDS011;46899;47.542;19.082;2024-03-25T10:13:58;3.05;;;1.83;;
61013;SDS011;46899;47.542;19.082;2024-03-25T10:16:59;1.35;;;1.25;;
61013;SDS011;46899;47.542;19.082;2024-03-25T10:20:04;1.92;;;1.40;;
61013;SDS011;46899;47.542;19.082;2024-03-25T10:23:09;2.40;;;1.33;;
61013;SDS011;46899;47.542;19.082;2024-03-25T10:26:29;1.47;;;1.30;;
61013;SDS011;46899;47.542;19.082;2024-03-25T10:29:33;3.58;;;1.80;;
61013;SDS011;46899;47.542;19.082;2024-03-25T10:32:35;2.53;;;1.52;;
61013;SDS011;46899;47.542;19.082;2024-03-25T10:35:39;1.40;;;1.30;;
61013;SDS011;46899;47.542;19.082;2024-03-25T10:38:42;2.27;;;1.50;;
61013;SDS011;46899;47.542;19.082;2024-03-25T10:41:46;2.70;;;1.40;;
61013;SDS011;46899;47.542;19.082;2024-03-25T10:44:50;3.20;;;1.70;;
61013;SDS011;46899;47.542;19.082;2024-03-25T10:47:55;4.97;;;2.08;;
61013;SDS011;46899;47.542;19.082;2024-03-25T10:51:04;1.62;;;1.40;;
61013;SDS011;46899;47.542;19.082;2024-03-25T10:54:08;2.83;;;1.50;;
61013;SDS011;46899;47.542;19.082;2024-03-25T10:57:11;4.12;;;2.83;;
61013;SDS011;46899;47.542;19.082;2024-03-25T11:00:15;2.03;;;1.70;;
61013;SDS011;46899;47.542;19.082;2024-03-25T11:03:17;4.40;;;1.58;;
61013;SDS011;46899;47.542;19.082;2024-03-25T11:06:22;1.90;;;1.17;;
61013;SDS011;46899;47.542;19.082;2024-03-25T11:09:24;2.85;;;1.50;;
61013;SDS011;46899;47.542;19.082;2024-03-25T11:12:32;2.15;;;1.35;;
61013;SDS011;46899;47.542;19.082;2024-03-25T11:15:36;3.78;;;1.33;;
61013;SDS011;46899;47.542;19.082;2024-03-25T11:18:41;2.70;;;1.20;;
61013;SDS011;46899;47.542;19.082;2024-03-25T11:21:53;1.73;;;1.50;;
61013;SDS011;46899;47.542;19.082;2024-03-25T11:24:55;3.35;;;1.98;;
61013;SDS011;46899;47.542;19.082;2024-03-25T11:27:57;1.60;;;1.48;;
61013;SDS011;46899;47.542;19.082;2024-03-25T11:30:59;4.20;;;2.28;;
61013;SDS011;46899;47.542;19.082;2024-03-25T11:34:04;3.67;;;2.30;;
61013;SDS011;46899;47.542;19.082;2024-03-25T11:37:06;3.80;;;2.50;;
61013;SDS011;46899;47.542;19.082;2024-03-25T11:40:10;2.78;;;1.80;;
61013;SDS011;46899;47.542;19.082;2024-03-25T11:43:19;1.67;;;1.23;;
61013;SDS011;46899;47.542;19.082;2024-03-25T11:46:24;2.30;;;1.25;;
61013;SDS011;46899;47.542;19.082;2024-03-25T11:49:26;0.80;;;0.80;;
61013;SDS011;46899;47.542;19.082;2024-03-25T11:52:31;1.87;;;1.20;;
61013;SDS011;46899;47.542;19.082;2024-03-25T11:55:33;2.97;;;1.20;;
61013;SDS011;46899;47.542;19.082;2024-03-25T11:58:35;2.37;;;1.10;;
61013;SDS011;46899;47.542;19.082;2024-03-25T12:01:38;0.90;;;0.90;;
61013;SDS011;46899;47.542;19.082;2024-03-25T12:04:41;1.30;;;1.20;;
61013;SDS011;46899;47.542;19.082;2024-03-25T12:07:46;2.62;;;1.48;;
61013;SDS011;46899;47.542;19.082;2024-03-25T12:10:48;1.98;;;1.40;;
61013;SDS011;46899;47.542;19.082;2024-03-25T12:14:09;2.25;;;1.65;;
61013;SDS011;46899;47.542;19.082;2024-03-25T12:17:11;1.75;;;1.48;;
61013;SDS011;46899;47.542;19.082;2024-03-25T12:20:12;2.25;;;1.40;;
61013;SDS011;46899;47.542;19.082;2024-03-25T12:23:17;1.70;;;1.60;;
61013;SDS011;46899;47.542;19.082;2024-03-25T12:26:19;1.70;;;1.40;;
61013;SDS011;46899;47.542;19.082;2024-03-25T12:29:22;1.73;;;1.48;;
61013;SDS011;46899;47.542;19.082;2024-03-25T12:32:30;1.95;;;1.52;;
61013;SDS011;46899;47.542;19.082;2024-03-25T12:35:34;1.65;;;1.37;;
61013;SDS011;46899;47.542;19.082;2024-03-25T12:38:37;4.93;;;1.60;;
61013;SDS011;46899;47.542;19.082;2024-03-25T12:41:39;2.60;;;1.35;;
61013;SDS011;46899;47.542;19.082;2024-03-25T12:44:41;2.28;;;1.60;;
61013;SDS011;46899;47.542;19.082;2024-03-25T12:47:43;3.40;;;1.50;;
61013;SDS011;46899;47.542;19.082;2024-03-25T12:50:44;1.55;;;1.45;;
61013;SDS011;46899;47.542;19.082;2024-03-25T12:53:47;3.00;;;1.45;;
61013;SDS011;46899;47.542;19.082;2024-03-25T12:56:49;3.03;;;1.62;;
61013;SDS011;46899;47.542;19.082;2024-03-25T12:59:50;2.60;;;1.40;;
61013;SDS011;46899;47.542;19.082;2024-03-25T13:02:52;1.37;;;1.10;;
61013;SDS011;46899;47.542;19.082;2024-03-25T13:05:54;1.25;;;1.15;;
61013;SDS011;46899;47.542;19.082;2024-03-25T13:08:58;1.50;;;1.40;;
61013;SDS011;46899;47.542;19.082;2024-03-25T13:12:00;3.22;;;1.40;;
61013;SDS011;46899;47.542;19.082;2024-03-25T13:15:03;2.42;;;1.20;;
61013;SDS011;46899;47.542;19.082;2024-03-25T13:18:05;1.30;;;1.20;;
61013;SDS011;46899;47.542;19.082;2024-03-25T13:21:07;1.87;;;1.40;;
61013;SDS011;46899;47.542;19.082;2024-03-25T13:24:09;3.22;;;1.75;;
61013;SDS011;46899;47.542;19.082;2024-03-25T13:27:11;2.60;;;1.50;;
61013;SDS011;46899;47.542;19.082;2024-03-25T13:30:13;6.60;;;1.50;;
61013;SDS011;46899;47.542;19.082;2024-03-25T13:33:15;2.40;;;1.80;;
61013;SDS011;46899;47.542;19.082;2024-03-25T13:36:17;2.37;;;1.73;;
61013;SDS011;46899;47.542;19.082;2024-03-25T13:39:19;2.65;;;1.60;;
61013;SDS011;46899;47.542;19.082;2024-03-25T13:42:21;4.12;;;1.75;;
61013;SDS011;46899;47.542;19.082;2024-03-25T13:45:23;2.20;;;1.70;;
61013;SDS011;46899;47.542;19.082;2024-03-25T13:48:26;2.40;;;1.62;;
61013;SDS011;46899;47.542;19.082;2024-03-25T13:51:28;2.08;;;1.52;;
61013;SDS011;46899;47.542;19.082;2024-03-25T13:54:30;1.37;;;1.27;;
61013;SDS011;46899;47.542;19.082;2024-03-25T13:57:32;3.55;;;1.52;;
61013;SDS011;46899;47.542;19.082;2024-03-25T14:00:34;1.75;;;1.30;;
61013;SDS011;46899;47.542;19.082;2024-03-25T14:03:38;1.85;;;1.30;;
61013;SDS011;46899;47.542;19.082;2024-03-25T14:06:39;4.25;;;1.27;;
61013;SDS011;46899;47.542;19.082;2024-03-25T14:09:42;3.55;;;1.50;;
61013;SDS011;46899;47.542;19.082;2024-03-25T14:12:44;1.77;;;1.12;;
61013;SDS011;46899;47.542;19.082;2024-03-25T14:15:46;1.10;;;1.00;;
61013;SDS011;46899;47.542;19.082;2024-03-25T14:18:51;1.40;;;1.30;;
61013;SDS011;46899;47.542;19.082;2024-03-25T14:21:53;2.17;;;1.17;;
61013;SDS011;46899;47.542;19.082;2024-03-25T14:24:54;0.95;;;0.95;;
61013;SDS011;46899;47.542;19.082;2024-03-25T14:27:59;0.98;;;0.98;;
61013;SDS011;46899;47.542;19.082;2024-03-25T14:31:01;1.05;;;0.90;;
61013;SDS011;46899;47.542;19.082;2024-03-25T14:34:03;2.75;;;1.00;;
61013;SDS011;46899;47.542;19.082;2024-03-25T14:37:05;2.50;;;1.00;;
61013;SDS011;46899;47.542;19.082;2024-03-25T14:40:07;1.73;;;1.23;;
61013;SDS011;46899;47.542;19.082;2024-03-25T14:43:10;1.20;;;1.10;;
61013;SDS011;46899;47.542;19.082;2024-03-25T14:46:12;2.72;;;1.40;;
61013;SDS011;46899;47.542;19.082;2024-03-25T14:49:14;2.03;;;1.70;;
61013;SDS011;46899;47.542;19.082;2024-03-25T14:52:16;2.20;;;1.37;;
61013;SDS011;46899;47.542;19.082;2024-03-25T14:55:18;2.05;;;1.40;;
61013;SDS011;46899;47.542;19.082;2024-03-25T14:58:19;2.47;;;1.48;;
61013;SDS011;46899;47.542;19.082;2024-03-25T15:01:21;2.22;;;1.45;;
61013;SDS011;46899;47.542;19.082;2024-03-25T15:04:23;1.80;;;1.50;;
61013;SDS011;46899;47.542;19.082;2024-03-25T15:07:26;1.52;;;1.35;;
61013;SDS011;46899;47.542;19.082;2024-03-25T15:10:28;2.03;;;1.50;;
61013;SDS011;46899;47.542;19.082;2024-03-25T15:13:30;3.17;;;1.58;;
61013;SDS011;46899;47.542;19.082;2024-03-25T15:16:32;1.62;;;1.33;;
61013;SDS011;46899;47.542;19.082;2024-03-25T15:19:34;2.92;;;1.65;;
61013;SDS011;46899;47.542;19.082;2024-03-25T15:22:36;2.85;;;1.62;;
61013;SDS011;46899;47.542;19.082;2024-03-25T15:25:39;1.50;;;1.30;;
61013;SDS011;46899;47.542;19.082;2024-03-25T15:28:41;3.87;;;1.60;;
61013;SDS011;46899;47.542;19.082;2024-03-25T15:31:43;4.15;;;1.50;;
61013;SDS011;46899;47.542;19.082;2024-03-25T15:34:45;2.53;;;1.70;;
61013;SDS011;46899;47.542;19.082;2024-03-25T15:37:47;3.17;;;1.55;;
61013;SDS011;46899;47.542;19.082;2024-03-25T15:40:49;2.97;;;1.48;;
61013;SDS011;46899;47.542;19.082;2024-03-25T15:43:53;1.42;;;1.27;;
61013;SDS011;46899;47.542;19.082;2024-03-25T15:46:56;1.77;;;1.30;;
61013;SDS011;46899;47.542;19.082;2024-03-25T15:49:58;1.52;;;1.42;;
61013;SDS011;46899;47.542;19.082;2024-03-25T15:53:00;1.90;;;1.52;;
61013;SDS011;46899;47.542;19.082;2024-03-25T15:56:02;1.67;;;1.55;;
61013;SDS011;46899;47.542;19.082;2024-03-25T15:59:04;2.08;;;1.50;;
61013;SDS011;46899;47.542;19.082;2024-03-25T16:02:06;2.12;;;1.40;;
61013;SDS011;46899;47.542;19.082;2024-03-25T16:05:08;2.67;;;1.58;;
61013;SDS011;46899;47.542;19.082;2024-03-25T16:08:10;2.78;;;1.70;;
61013;SDS011;46899;47.542;19.082;2024-03-25T16:11:15;4.70;;;1.80;;
61013;SDS011;46899;47.542;19.082;2024-03-25T16:14:18;3.67;;;1.70;;
61013;SDS011;46899;47.542;19.082;2024-03-25T16:17:20;4.47;;;1.73;;
61013;SDS011;46899;47.542;19.082;2024-03-25T16:20:22;2.28;;;1.42;;
61013;SDS011;46899;47.542;19.082;2024-03-25T16:23:25;2.00;;;1.40;;
61013;SDS011;46899;47.542;19.082;2024-03-25T16:26:27;3.00;;;1.50;;
61013;SDS011;46899;47.542;19.082;2024-03-25T16:29:29;2.42;;;1.60;;
61013;SDS011;46899;47.542;19.082;2024-03-25T16:32:31;2.65;;;1.50;;
61013;SDS011;46899;47.542;19.082;2024-03-25T16:35:37;2.00;;;1.62;;
61013;SDS011;46899;47.542;19.082;2024-03-25T16:38:40;4.40;;;1.90;;
61013;SDS011;46899;47.542;19.082;2024-03-25T16:41:43;2.72;;;1.95;;
61013;SDS011;46899;47.542;19.082;2024-03-25T16:44:44;2.08;;;1.70;;
61013;SDS011;46899;47.542;19.082;2024-03-25T16:47:47;3.72;;;1.70;;
61013;SDS011;46899;47.542;19.082;2024-03-25T16:50:48;2.33;;;1.75;;
61013;SDS011;46899;47.542;19.082;2024-03-25T16:53:52;2.90;;;1.85;;
61013;SDS011;46899;47.542;19.082;2024-03-25T16:56:54;3.85;;;2.00;;
61013;SDS011;46899;47.542;19.082;2024-03-25T16:59:56;4.37;;;2.00;;
61013;SDS011;46899;47.542;19.082;2024-03-25T17:02:58;5.80;;;1.85;;
61013;SDS011;46899;47.542;19.082;2024-03-25T17:06:00;3.05;;;1.92;;
61013;SDS011;46899;47.542;19.082;2024-03-25T17:09:02;3.50;;;2.05;;
61013;SDS011;46899;47.542;19.082;2024-03-25T17:12:04;4.55;;;2.00;;
61013;SDS011;46899;47.542;19.082;2024-03-25T17:15:06;2.78;;;1.65;;
61013;SDS011;46899;47.542;19.082;2024-03-25T17:18:12;3.35;;;2.12;;
61013;SDS011;46899;47.542;19.082;2024-03-25T17:21:17;4.32;;;2.47;;
61013;SDS011;46899;47.542;19.082;2024-03-25T17:24:19;5.80;;;2.10;;
61013;SDS011;46899;47.542;19.082;2024-03-25T17:27:21;4.28;;;2.42;;
61013;SDS011;46899;47.542;19.082;2024-03-25T17:30:23;5.60;;;2.65;;
61013;SDS011;46899;47.542;19.082;2024-03-25T17:33:25;5.03;;;2.37;;
61013;SDS011;46899;47.542;19.082;2024-03-25T17:36:27;7.15;;;2.65;;
61013;SDS011;46899;47.542;19.082;2024-03-25T17:39:29;4.57;;;2.03;;
61013;SDS011;46899;47.542;19.082;2024-03-25T17:42:31;3.35;;;2.17;;
61013;SDS011;46899;47.542;19.082;2024-03-25T17:45:32;2.97;;;2.05;;
61013;SDS011;46899;47.542;19.082;2024-03-25T17:48:34;2.50;;;1.90;;
61013;SDS011;46899;47.542;19.082;2024-03-25T17:51:36;5.87;;;2.47;;
61013;SDS011;46899;47.542;19.082;2024-03-25T17:54:38;3.72;;;2.30;;
61013;SDS011;46899;47.542;19.082;2024-03-25T17:57:39;6.72;;;3.00;;
61013;SDS011;46899;47.542;19.082;2024-03-25T18:00:42;5.53;;;2.80;;
61013;SDS011;46899;47.542;19.082;2024-03-25T18:03:44;5.97;;;3.00;;
61013;SDS011;46899;47.542;19.082;2024-03-25T18:06:45;6.03;;;2.62;;